sensor_id;sensor_type;location;lat;lon;timestamp;pressure;altitude;pressure_sealevel;temperature;humidity
77871;BME280;67067;46.850;7.578;2023-04-15T00:00:14;94359.34;;;5.70;48.51
77871;BME280;67067;46.850;7.578;2023-04-15T00:01:20;94355.03;;;5.81;48.21
77871;BME280;67067;46.850;7.578;2023-04-15T00:02:23;94360.06;;;5.83;48.16
77871;BME280;67067;46.850;7.578;2023-04-15T00:03:25;94359.81;;;5.84;48.58
77871;BME280;67067;46.850;7.578;2023-04-15T00:04:27;94353.78;;;5.84;48.58
77871;BME280;67067;46.850;7.578;2023-04-15T00:05:29;94356.13;;;5.85;48.42
77871;BME280;67067;46.850;7.578;2023-04-15T00:06:32;94356.38;;;5.84;48.54
77871;BME280;67067;46.850;7.578;2023-04-15T00:07:33;94357.53;;;5.71;48.77
77871;BME280;67067;46.850;7.578;2023-04-15T00:08:35;94361.38;;;5.85;48.27
77871;BME280;67067;46.850;7.578;2023-04-15T00:09:36;94363.31;;;5.73;48.66
77871;BME280;67067;46.850;7.578;2023-04-15T00:10:40;94361.38;;;5.85;48.36
77871;BME280;67067;46.850;7.578;2023-04-15T00:11:45;94364.00;;;5.85;48.84
77871;BME280;67067;46.850;7.578;2023-04-15T00:12:46;94352.47;;;5.86;48.86
77871;BME280;67067;46.850;7.578;2023-04-15T00:13:51;94358.03;;;5.90;48.66
77871;BME280;67067;46.850;7.578;2023-04-15T00:14:53;94360.41;;;5.92;48.88
77871;BME280;67067;46.850;7.578;2023-04-15T00:15:54;94361.50;;;5.96;48.62
77871;BME280;67067;46.850;7.578;2023-04-15T00:16:56;94356.94;;;5.86;48.26
77871;BME280;67067;46.850;7.578;2023-04-15T00:17:58;94358.66;;;5.97;48.08
77871;BME280;67067;46.850;7.578;2023-04-15T00:19:03;94355.28;;;6.02;48.05
77871;BME280;67067;46.850;7.578;2023-04-15T00:20:05;94358.47;;;6.04;48.11
77871;BME280;67067;46.850;7.578;2023-04-15T00:21:07;94354.03;;;6.05;48.21
77871;BME280;67067;46.850;7.578;2023-04-15T00:22:10;94353.47;;;6.02;48.30
77871;BME280;67067;46.850;7.578;2023-04-15T00:23:12;94355.84;;;6.04;48.21
77871;BME280;67067;46.850;7.578;2023-04-15T00:24:14;94355.66;;;5.88;48.55
77871;BME280;67067;46.850;7.578;2023-04-15T00:25:16;94359.44;;;5.98;48.33
77871;BME280;67067;46.850;7.578;2023-04-15T00:26:18;94358.19;;;6.00;48.20
77871;BME280;67067;46.850;7.578;2023-04-15T00:27:23;94351.88;;;6.01;48.25
77871;BME280;67067;46.850;7.578;2023-04-15T00:28:24;94361.16;;;5.87;48.24
77871;BME280;67067;46.850;7.578;2023-04-15T00:29:26;94350.22;;;5.95;47.94
77871;BME280;67067;46.850;7.578;2023-04-15T00:30:30;94350.53;;;5.99;48.03
77871;BME280;67067;46.850;7.578;2023-04-15T00:31:32;94350.53;;;5.99;48.17
77871;BME280;67067;46.850;7.578;2023-04-15T00:32:34;94351.56;;;5.98;48.28
77871;BME280;67067;46.850;7.578;2023-04-15T00:33:38;94352.91;;;6.00;48.19
77871;BME280;67067;46.850;7.578;2023-04-15T00:34:40;94351.34;;;5.99;48.22
77871;BME280;67067;46.850;7.578;2023-04-15T00:35:45;94346.25;;;5.93;48.28
77871;BME280;67067;46.850;7.578;2023-04-15T00:36:49;94356.31;;;5.79;48.85
77871;BME280;67067;46.850;7.578;2023-04-15T00:37:55;94350.41;;;5.88;48.46
77871;BME280;67067;46.850;7.578;2023-04-15T00:38:57;94348.31;;;5.91;48.22
77871;BME280;67067;46.850;7.578;2023-04-15T00:40:00;94348.31;;;5.91;48.24
77871;BME280;67067;46.850;7.578;2023-04-15T00:41:02;94351.44;;;5.87;48.24
77871;BME280;67067;46.850;7.578;2023-04-15T00:42:04;94354.06;;;5.87;48.57
77871;BME280;67067;46.850;7.578;2023-04-15T00:43:08;94345.41;;;5.87;48.45
77871;BME280;67067;46.850;7.578;2023-04-15T00:44:10;94347.53;;;5.90;48.68
77871;BME280;67067;46.850;7.578;2023-04-15T00:45:11;94339.22;;;5.76;48.98
77871;BME280;67067;46.850;7.578;2023-04-15T00:46:15;94348.25;;;5.85;48.84
77871;BME280;67067;46.850;7.578;2023-04-15T00:47:20;94347.22;;;5.86;48.88
77871;BME280;67067;46.850;7.578;2023-04-15T00:48:23;94339.88;;;5.88;48.45
77871;BME280;67067;46.850;7.578;2023-04-15T00:49:25;94340.44;;;5.91;48.71
77871;BME280;67067;46.850;7.578;2023-04-15T00:50:27;94336.78;;;5.92;48.70
77871;BME280;67067;46.850;7.578;2023-04-15T00:51:29;94341.00;;;5.93;48.22
77871;BME280;67067;46.850;7.578;2023-04-15T00:52:33;94336.84;;;5.97;48.13
77871;BME280;67067;46.850;7.578;2023-04-15T00:53:35;94332.50;;;5.85;48.56
77871;BME280;67067;46.850;7.578;2023-04-15T00:54:41;94343.13;;;5.96;47.98
77871;BME280;67067;46.850;7.578;2023-04-15T00:55:45;94337.88;;;5.96;48.03
77871;BME280;67067;46.850;7.578;2023-04-15T00:56:48;94337.94;;;6.01;47.97
77871;BME280;67067;46.850;7.578;2023-04-15T00:57:51;94337.44;;;6.04;47.90
77871;BME280;67067;46.850;7.578;2023-04-15T00:58:53;94340.63;;;6.06;47.91
77871;BME280;67067;46.850;7.578;2023-04-15T00:59:55;94333.88;;;6.10;47.97
77871;BME280;67067;46.850;7.578;2023-04-15T01:00:57;94341.75;;;6.10;47.78
77871;BME280;67067;46.850;7.578;2023-04-15T01:01:59;94341.19;;;6.08;48.33
77871;BME280;67067;46.850;7.578;2023-04-15T01:03:03;94334.81;;;6.04;48.26
77871;BME280;67067;46.850;7.578;2023-04-15T01:04:09;94331.72;;;6.07;48.37
77871;BME280;67067;46.850;7.578;2023-04-15T01:05:12;94337.72;;;6.02;48.24
77871;BME280;67067;46.850;7.578;2023-04-15T01:06:18;94336.41;;;6.05;48.16
77871;BME280;67067;46.850;7.578;2023-04-15T01:07:19;94342.69;;;6.04;48.58
77871;BME280;67067;46.850;7.578;2023-04-15T01:08:21;94341.81;;;5.93;48.51
77871;BME280;67067;46.850;7.578;2023-04-15T01:09:23;94344.84;;;6.07;48.43
77871;BME280;67067;46.850;7.578;2023-04-15T01:10:24;94341.19;;;6.08;48.83
77871;BME280;67067;46.850;7.578;2023-04-15T01:11:26;94334.16;;;5.92;49.12
77871;BME280;67067;46.850;7.578;2023-04-15T01:12:32;94339.53;;;6.02;49.04
77871;BME280;67067;46.850;7.578;2023-04-15T01:13:35;94345.66;;;6.08;49.12
77871;BME280;67067;46.850;7.578;2023-04-15T01:14:37;94339.59;;;6.07;49.22
77871;BME280;67067;46.850;7.578;2023-04-15T01:15:42;94338.00;;;6.06;48.95
77871;BME280;67067;46.850;7.578;2023-04-15T01:16:45;94341.97;;;6.09;49.26
77871;BME280;67067;46.850;7.578;2023-04-15T01:17:47;94343.81;;;6.08;49.23
77871;BME280;67067;46.850;7.578;2023-04-15T01:18:49;94335.13;;;6.08;48.94
77871;BME280;67067;46.850;7.578;2023-04-15T01:19:55;94339.91;;;6.11;48.95
77871;BME280;67067;46.850;7.578;2023-04-15T01:20:59;94335.19;;;6.13;49.25
77871;BME280;67067;46.850;7.578;2023-04-15T01:22:02;94339.69;;;6.12;48.86
77871;BME280;67067;46.850;7.578;2023-04-15T01:23:04;94342.84;;;6.14;48.71
77871;BME280;67067;46.850;7.578;2023-04-15T01:24:08;94344.66;;;6.14;48.89
77871;BME280;67067;46.850;7.578;2023-04-15T01:25:13;94343.09;;;6.13;48.69
77871;BME280;67067;46.850;7.578;2023-04-15T01:26:18;94341.50;;;6.12;49.00
77871;BME280;67067;46.850;7.578;2023-04-15T01:27:20;94342.84;;;6.14;48.76
77871;BME280;67067;46.850;7.578;2023-04-15T01:28:25;94333.38;;;6.13;48.88
77871;BME280;67067;46.850;7.578;2023-04-15T01:29:28;94341.25;;;6.13;48.74
77871;BME280;67067;46.850;7.578;2023-04-15T01:30:33;94337.81;;;6.13;48.53
77871;BME280;67067;46.850;7.578;2023-04-15T01:31:37;94338.09;;;6.11;48.74
77871;BME280;67067;46.850;7.578;2023-04-15T01:32:39;94333.38;;;6.13;48.47
77871;BME280;67067;46.850;7.578;2023-04-15T01:33:41;94335.53;;;6.16;48.65
77871;BME280;67067;46.850;7.578;2023-04-15T01:34:43;94337.09;;;6.17;48.60
77871;BME280;67067;46.850;7.578;2023-04-15T01:35:45;94333.50;;;6.01;49.00
77871;BME280;67067;46.850;7.578;2023-04-15T01:36:49;94332.34;;;6.14;48.80
77871;BME280;67067;46.850;7.578;2023-04-15T01:37:52;94334.47;;;6.17;48.51
77871;BME280;67067;46.850;7.578;2023-04-15T01:38:56;94335.03;;;6.20;48.61
77871;BME280;67067;46.850;7.578;2023-04-15T01:40:01;94337.09;;;6.17;48.58
77871;BME280;67067;46.850;7.578;2023-04-15T01:41:04;94331.84;;;6.17;48.40
77871;BME280;67067;46.850;7.578;2023-04-15T01:42:08;94331.84;;;6.17;48.70
77871;BME280;67067;46.850;7.578;2023-04-15T01:43:10;94334.41;;;6.12;48.86
77871;BME280;67067;46.850;7.578;2023-04-15T01:44:11;94335.03;;;5.97;48.78
77871;BME280;67067;46.850;7.578;2023-04-15T01:45:13;94330.59;;;6.03;48.85
77871;BME280;67067;46.850;7.578;2023-04-15T01:46:15;94334.34;;;5.85;49.25
77871;BME280;67067;46.850;7.578;2023-04-15T01:47:19;94332.81;;;5.89;49.22
77871;BME280;67067;46.850;7.578;2023-04-15T01:48:22;94326.75;;;5.88;48.99
77871;BME280;67067;46.850;7.578;2023-04-15T01:49:23;94333.84;;;5.88;48.97
77871;BME280;67067;46.850;7.578;2023-04-15T01:50:27;94333.53;;;5.84;48.97
77871;BME280;67067;46.850;7.578;2023-04-15T01:51:29;94332.31;;;5.70;49.06
77871;BME280;67067;46.850;7.578;2023-04-15T01:52:31;94330.63;;;5.81;48.84
77871;BME280;67067;46.850;7.578;2023-04-15T01:53:32;94339.91;;;5.71;48.85
77871;BME280;67067;46.850;7.578;2023-04-15T01:54:35;94338.00;;;5.84;48.90
77871;BME280;67067;46.850;7.578;2023-04-15T01:55:37;94336.72;;;5.86;49.26
77871;BME280;67067;46.850;7.578;2023-04-15T01:56:40;94326.16;;;5.81;49.43
77871;BME280;67067;46.850;7.578;2023-04-15T01:57:43;94325.38;;;5.81;49.83
77871;BME280;67067;46.850;7.578;2023-04-15T01:58:45;94328.25;;;5.62;49.75
77871;BME280;67067;46.850;7.578;2023-04-15T01:59:46;94333.41;;;5.74;49.59
77871;BME280;67067;46.850;7.578;2023-04-15T02:00:48;94332.91;;;5.77;49.88
77871;BME280;67067;46.850;7.578;2023-04-15T02:01:50;94332.75;;;5.84;49.62
77871;BME280;67067;46.850;7.578;2023-04-15T02:02:53;94340.94;;;5.87;49.41
77871;BME280;67067;46.850;7.578;2023-04-15T02:03:58;94336.22;;;5.90;49.66
77871;BME280;67067;46.850;7.578;2023-04-15T02:05:00;94341.84;;;5.76;49.79
77871;BME280;67067;46.850;7.578;2023-04-15T02:06:04;94339.88;;;5.88;49.91
77871;BME280;67067;46.850;7.578;2023-04-15T02:07:06;94341.81;;;5.93;49.76
77871;BME280;67067;46.850;7.578;2023-04-15T02:08:09;94338.13;;;5.94;49.52
77871;BME280;67067;46.850;7.578;2023-04-15T02:09:12;94340.50;;;5.96;49.52
77871;BME280;67067;46.850;7.578;2023-04-15T02:10:13;94340.81;;;5.99;49.64
77871;BME280;67067;46.850;7.578;2023-04-15T02:11:17;94337.94;;;6.01;49.22
77871;BME280;67067;46.850;7.578;2023-04-15T02:12:19;94336.91;;;6.02;49.14
77871;BME280;67067;46.850;7.578;2023-04-15T02:13:24;94338.50;;;6.03;49.18
77871;BME280;67067;46.850;7.578;2023-04-15T02:14:26;94334.16;;;5.92;49.64
77871;BME280;67067;46.850;7.578;2023-04-15T02:15:28;94336.91;;;6.02;49.33
77871;BME280;67067;46.850;7.578;2023-04-15T02:16:32;94332.69;;;6.01;49.52
77871;BME280;67067;46.850;7.578;2023-04-15T02:17:37;94332.19;;;6.04;49.54
77871;BME280;67067;46.850;7.578;2023-04-15T02:18:41;94335.91;;;6.08;49.49
77871;BME280;67067;46.850;7.578;2023-04-15T02:19:43;94334.09;;;6.09;49.48
77871;BME280;67067;46.850;7.578;2023-04-15T02:20:45;94338.88;;;6.12;49.64
77871;BME280;67067;46.850;7.578;2023-04-15T02:21:47;94337.44;;;6.04;49.63
77871;BME280;67067;46.850;7.578;2023-04-15T02:22:51;94334.28;;;6.02;49.62
77871;BME280;67067;46.850;7.578;2023-04-15T02:23:53;94339.13;;;5.88;49.73
77871;BME280;67067;46.850;7.578;2023-04-15T02:24:54;94335.25;;;5.96;49.77
77871;BME280;67067;46.850;7.578;2023-04-15T02:25:59;94343.19;;;6.01;49.32
77871;BME280;67067;46.850;7.578;2023-04-15T02:27:00;94338.84;;;5.90;49.74
77871;BME280;67067;46.850;7.578;2023-04-15T02:28:02;94332.41;;;5.97;49.49
77871;BME280;67067;46.850;7.578;2023-04-15T02:29:04;94331.91;;;6.00;49.38
77871;BME280;67067;46.850;7.578;2023-04-15T02:30:07;94331.16;;;6.05;49.50
77871;BME280;67067;46.850;7.578;2023-04-15T02:31:09;94343.75;;;6.03;49.75
77871;BME280;67067;46.850;7.578;2023-04-15T02:32:16;94335.84;;;6.03;49.45
77871;BME280;67067;46.850;7.578;2023-04-15T02:33:18;94331.66;;;6.02;49.64
77871;BME280;67067;46.850;7.578;2023-04-15T02:34:21;94336.91;;;6.02;49.55
77871;BME280;67067;46.850;7.578;2023-04-15T02:35:23;94338.63;;;5.91;49.82
77871;BME280;67067;46.850;7.578;2023-04-15T02:36:26;94339.53;;;6.02;49.93
77871;BME280;67067;46.850;7.578;2023-04-15T02:37:34;94344.28;;;6.05;49.56
77871;BME280;67067;46.850;7.578;2023-04-15T02:38:42;94341.91;;;6.03;49.82
77871;BME280;67067;46.850;7.578;2023-04-15T02:39:46;94345.88;;;6.06;49.78
77871;BME280;67067;46.850;7.578;2023-04-15T02:40:49;94351.44;;;6.10;50.04
77871;BME280;67067;46.850;7.578;2023-04-15T02:41:51;94349.31;;;6.07;50.10
77871;BME280;67067;46.850;7.578;2023-04-15T02:42:53;94343.56;;;5.87;50.75
77871;BME280;67067;46.850;7.578;2023-04-15T02:43:54;94341.13;;;6.03;50.37
77871;BME280;67067;46.850;7.578;2023-04-15T02:44:57;94337.44;;;6.04;50.37
77871;BME280;67067;46.850;7.578;2023-04-15T02:46:04;94343.81;;;6.08;50.44
77871;BME280;67067;46.850;7.578;2023-04-15T02:47:06;94339.28;;;6.03;50.45
77871;BME280;67067;46.850;7.578;2023-04-15T02:48:08;94348.81;;;5.87;50.98
77871;BME280;67067;46.850;7.578;2023-04-15T02:49:10;94350.28;;;6.00;50.78
77871;BME280;67067;46.850;7.578;2023-04-15T02:50:12;94345.16;;;5.88;51.24
77871;BME280;67067;46.850;7.578;2023-04-15T02:51:17;94347.41;;;6.02;50.98
77871;BME280;67067;46.850;7.578;2023-04-15T02:52:20;94357.13;;;6.01;51.03
77871;BME280;67067;46.850;7.578;2023-04-15T02:53:22;94351.94;;;6.07;50.87
77871;BME280;67067;46.850;7.578;2023-04-15T02:54:24;94344.84;;;6.07;50.95
77871;BME280;67067;46.850;7.578;2023-04-15T02:55:26;94344.63;;;6.09;51.32
77871;BME280;67067;46.850;7.578;2023-04-15T02:56:28;94351.13;;;6.06;51.43
77871;BME280;67067;46.850;7.578;2023-04-15T02:57:31;94345.81;;;6.01;51.41
77871;BME280;67067;46.850;7.578;2023-04-15T02:58:38;94346.84;;;6.00;51.43
77871;BME280;67067;46.850;7.578;2023-04-15T02:59:41;94347.41;;;6.02;51.90
77871;BME280;67067;46.850;7.578;2023-04-15T03:00:42;94349.06;;;5.86;51.97
77871;BME280;67067;46.850;7.578;2023-04-15T03:01:44;94350.47;;;5.94;51.82
77871;BME280;67067;46.850;7.578;2023-04-15T03:02:48;94351.56;;;5.98;51.87
77871;BME280;67067;46.850;7.578;2023-04-15T03:04:13;94353.63;;;5.96;51.69
77871;BME280;67067;46.850;7.578;2023-04-15T03:05:18;94347.06;;;5.93;52.20
77871;BME280;67067;46.850;7.578;2023-04-15T03:06:23;94355.09;;;5.86;52.32
77871;BME280;67067;46.850;7.578;2023-04-15T03:07:25;94352.66;;;5.80;52.24
77871;BME280;67067;46.850;7.578;2023-04-15T03:08:29;94351.31;;;5.77;52.68
77871;BME280;67067;46.850;7.578;2023-04-15T03:09:31;94352.34;;;5.76;52.42
77871;BME280;67067;46.850;7.578;2023-04-15T03:10:35;94351.78;;;5.74;52.45
77871;BME280;67067;46.850;7.578;2023-04-15T03:11:37;94351.22;;;5.72;52.73
77871;BME280;67067;46.850;7.578;2023-04-15T03:12:42;94348.34;;;5.73;52.50
77871;BME280;67067;46.850;7.578;2023-04-15T03:13:49;94348.06;;;5.70;52.72
77871;BME280;67067;46.850;7.578;2023-04-15T03:15:00;94352.75;;;5.68;52.83
77871;BME280;67067;46.850;7.578;2023-04-15T03:16:09;94349.88;;;5.69;52.61
77871;BME280;67067;46.850;7.578;2023-04-15T03:17:11;94343.34;;;5.72;52.89
77871;BME280;67067;46.850;7.578;2023-04-15T03:18:12;94350.22;;;5.56;53.28
77871;BME280;67067;46.850;7.578;2023-04-15T03:19:15;94351.41;;;5.65;52.80
77871;BME280;67067;46.850;7.578;2023-04-15T03:20:17;94346.47;;;5.69;52.92
77871;BME280;67067;46.850;7.578;2023-04-15T03:21:21;94348.22;;;5.63;52.84
77871;BME280;67067;46.850;7.578;2023-04-15T03:22:24;94350.00;;;5.57;53.18
77871;BME280;67067;46.850;7.578;2023-04-15T03:23:30;94352.06;;;5.55;53.37
77871;BME280;67067;46.850;7.578;2023-04-15T03:24:35;94348.06;;;5.53;53.28
77871;BME280;67067;46.850;7.578;2023-04-15T03:25:37;94347.09;;;5.42;53.24
77871;BME280;67067;46.850;7.578;2023-04-15T03:26:40;94344.00;;;5.45;53.26
77871;BME280;67067;46.850;7.578;2023-04-15T03:27:48;94346.94;;;5.49;53.55
77871;BME280;67067;46.850;7.578;2023-04-15T03:28:55;94342.50;;;5.49;53.60
77871;BME280;67067;46.850;7.578;2023-04-15T03:29:57;94345.59;;;5.46;53.75
77871;BME280;67067;46.850;7.578;2023-04-15T03:31:05;94348.22;;;5.46;53.77
77871;BME280;67067;46.850;7.578;2023-04-15T03:32:06;94340.34;;;5.46;53.57
77871;BME280;67067;46.850;7.578;2023-04-15T03:33:08;94348.53;;;5.33;54.01
77871;BME280;67067;46.850;7.578;2023-04-15T03:34:11;94342.31;;;5.39;53.90
77871;BME280;67067;46.850;7.578;2023-04-15T03:35:15;94339.81;;;5.44;53.61
77871;BME280;67067;46.850;7.578;2023-04-15T03:36:16;94339.06;;;5.32;53.75
77871;BME280;67067;46.850;7.578;2023-04-15T03:37:18;94333.97;;;5.42;53.63
77871;BME280;67067;46.850;7.578;2023-04-15T03:38:20;94339.06;;;5.32;54.04
77871;BME280;67067;46.850;7.578;2023-04-15T03:39:24;94340.25;;;5.41;53.56
77871;BME280;67067;46.850;7.578;2023-04-15T03:40:26;94339.00;;;5.26;54.07
77871;BME280;67067;46.850;7.578;2023-04-15T03:41:27;94341.22;;;5.35;53.61
77871;BME280;67067;46.850;7.578;2023-04-15T03:42:29;94336.63;;;5.25;53.81
77871;BME280;67067;46.850;7.578;2023-04-15T03:43:31;94339.16;;;5.37;53.86
77871;BME280;67067;46.850;7.578;2023-04-15T03:44:34;94341.22;;;5.35;54.15
77871;BME280;67067;46.850;7.578;2023-04-15T03:45:36;94339.63;;;5.34;54.18
77871;BME280;67067;46.850;7.578;2023-04-15T03:46:38;94343.13;;;5.22;54.37
77871;BME280;67067;46.850;7.578;2023-04-15T03:47:45;94334.38;;;5.34;54.22
77871;BME280;67067;46.850;7.578;2023-04-15T03:48:47;94334.16;;;5.35;54.14
77871;BME280;67067;46.850;7.578;2023-04-15T03:49:49;94327.53;;;5.33;54.09
77871;BME280;67067;46.850;7.578;2023-04-15T03:50:53;94337.56;;;5.36;54.20
77871;BME280;67067;46.850;7.578;2023-04-15T03:51:54;94337.00;;;5.34;54.09
77871;BME280;67067;46.850;7.578;2023-04-15T03:52:56;94341.69;;;5.32;54.39
77871;BME280;67067;46.850;7.578;2023-04-15T03:53:58;94334.84;;;5.30;54.56
77871;BME280;67067;46.850;7.578;2023-04-15T03:55:00;94332.47;;;5.12;55.12
77871;BME280;67067;46.850;7.578;2023-04-15T03:56:02;94332.63;;;5.22;54.67
77871;BME280;67067;46.850;7.578;2023-04-15T03:57:03;94331.22;;;5.14;54.62
77871;BME280;67067;46.850;7.578;2023-04-15T03:58:05;94336.84;;;5.23;54.23
77871;BME280;67067;46.850;7.578;2023-04-15T03:59:07;94329.84;;;5.12;54.35
77871;BME280;67067;46.850;7.578;2023-04-15T04:00:09;94327.88;;;5.19;54.41
77871;BME280;67067;46.850;7.578;2023-04-15T04:01:14;94328.44;;;5.21;54.55
77871;BME280;67067;46.850;7.578;2023-04-15T04:02:17;94328.44;;;5.21;54.38
77871;BME280;67067;46.850;7.578;2023-04-15T04:03:21;94336.84;;;5.23;54.17
77871;BME280;67067;46.850;7.578;2023-04-15T04:04:23;94332.41;;;5.24;54.28
77871;BME280;67067;46.850;7.578;2023-04-15T04:05:25;94341.06;;;5.24;54.62
77871;BME280;67067;46.850;7.578;2023-04-15T04:06:26;94327.56;;;5.15;54.77
77871;BME280;67067;46.850;7.578;2023-04-15T04:07:28;94329.53;;;5.25;54.34
77871;BME280;67067;46.850;7.578;2023-04-15T04:08:30;94339.00;;;5.26;54.43
77871;BME280;67067;46.850;7.578;2023-04-15T04:09:32;94339.31;;;5.13;54.58
77871;BME280;67067;46.850;7.578;2023-04-15T04:10:33;94336.28;;;5.21;54.30
77871;BME280;67067;46.850;7.578;2023-04-15T04:11:35;94340.34;;;5.12;54.49
77871;BME280;67067;46.850;7.578;2023-04-15T04:12:38;94331.53;;;5.18;54.43
77871;BME280;67067;46.850;7.578;2023-04-15T04:13:39;94335.19;;;5.17;54.45
77871;BME280;67067;46.850;7.578;2023-04-15T04:14:41;94334.72;;;5.20;54.63
77871;BME280;67067;46.850;7.578;2023-04-15T04:15:43;94335.59;;;5.09;54.43
77871;BME280;67067;46.850;7.578;2023-04-15T04:16:45;94333.94;;;5.20;54.30
77871;BME280;67067;46.850;7.578;2023-04-15T04:17:47;94339.78;;;5.10;54.30
77871;BME280;67067;46.850;7.578;2023-04-15T04:18:49;94340.22;;;5.19;54.33
77871;BME280;67067;46.850;7.578;2023-04-15T04:19:52;94336.78;;;5.18;54.35
77871;BME280;67067;46.850;7.578;2023-04-15T04:20:56;94340.75;;;5.21;54.20
77871;BME280;67067;46.850;7.578;2023-04-15T04:21:58;94330.34;;;5.09;54.18
77871;BME280;67067;46.850;7.578;2023-04-15T04:23:00;94335.19;;;5.17;54.58
77871;BME280;67067;46.850;7.578;2023-04-15T04:24:01;94334.00;;;5.08;54.90
77871;BME280;67067;46.850;7.578;2023-04-15T04:25:03;94333.13;;;5.19;54.48
77871;BME280;67067;46.850;7.578;2023-04-15T04:26:06;94333.19;;;5.24;54.51
77871;BME280;67067;46.850;7.578;2023-04-15T04:27:07;94341.06;;;5.24;54.65
77871;BME280;67067;46.850;7.578;2023-04-15T04:28:09;94341.94;;;5.13;55.18
77871;BME280;67067;46.850;7.578;2023-04-15T04:29:12;94340.28;;;5.24;54.74
77871;BME280;67067;46.850;7.578;2023-04-15T04:30:16;94342.16;;;5.28;54.61
77871;BME280;67067;46.850;7.578;2023-04-15T04:32:27;94341.06;;;5.24;54.21
77871;BME280;67067;46.850;7.578;2023-04-15T04:33:28;94349.25;;;5.11;54.91
77871;BME280;67067;46.850;7.578;2023-04-15T04:34:30;94342.34;;;5.22;54.67
77871;BME280;67067;46.850;7.578;2023-04-15T04:35:32;94339.25;;;5.25;54.79
77871;BME280;67067;46.850;7.578;2023-04-15T04:36:37;94333.75;;;5.26;55.19
77871;BME280;67067;46.850;7.578;2023-04-15T04:37:39;94342.72;;;5.30;55.30
77871;BME280;67067;46.850;7.578;2023-04-15T04:38:43;94340.91;;;5.31;55.29
77871;BME280;67067;46.850;7.578;2023-04-15T04:39:45;94343.28;;;5.33;55.48
77871;BME280;67067;46.850;7.578;2023-04-15T04:40:49;94347.50;;;5.34;55.53
77871;BME280;67067;46.850;7.578;2023-04-15T04:41:51;94344.41;;;5.37;55.75
77871;BME280;67067;46.850;7.578;2023-04-15T04:42:52;94344.97;;;5.22;56.03
77871;BME280;67067;46.850;7.578;2023-04-15T04:43:54;94341.69;;;5.32;55.73
77871;BME280;67067;46.850;7.578;2023-04-15T04:44:56;94339.16;;;5.37;55.42
77871;BME280;67067;46.850;7.578;2023-04-15T04:45:58;94341.84;;;5.42;55.28
77871;BME280;67067;46.850;7.578;2023-04-15T04:47:00;94340.03;;;5.42;55.26
77871;BME280;67067;46.850;7.578;2023-04-15T04:48:02;94344.25;;;5.26;55.55
77871;BME280;67067;46.850;7.578;2023-04-15T04:49:07;94341.53;;;5.38;55.23
77871;BME280;67067;46.850;7.578;2023-04-15T04:50:09;94344.25;;;5.26;55.71
77871;BME280;67067;46.850;7.578;2023-04-15T04:51:11;94343.91;;;5.40;55.46
77871;BME280;67067;46.850;7.578;2023-04-15T04:52:15;94352.66;;;5.45;55.23
77871;BME280;67067;46.850;7.578;2023-04-15T04:53:17;94346.47;;;5.35;55.50
77871;BME280;67067;46.850;7.578;2023-04-15T04:54:18;94346.38;;;5.47;55.28
77871;BME280;67067;46.850;7.578;2023-04-15T04:55:20;94347.75;;;5.49;55.38
77871;BME280;67067;46.850;7.578;2023-04-15T04:56:22;94346.75;;;5.50;55.12
77871;BME280;67067;46.850;7.578;2023-04-15T04:57:26;94350.84;;;5.46;55.46
77871;BME280;67067;46.850;7.578;2023-04-15T04:58:27;94343.28;;;5.50;55.37
77871;BME280;67067;46.850;7.578;2023-04-15T04:59:29;94338.28;;;5.48;55.20
77871;BME280;67067;46.850;7.578;2023-04-15T05:00:31;94344.66;;;5.52;54.86
77871;BME280;67067;46.850;7.578;2023-04-15T05:01:35;94350.44;;;5.37;55.04
77871;BME280;67067;46.850;7.578;2023-04-15T05:02:39;94346.63;;;5.45;55.08
77871;BME280;67067;46.850;7.578;2023-04-15T05:03:43;94343.75;;;5.47;54.87
77871;BME280;67067;46.850;7.578;2023-04-15T05:04:44;94344.56;;;5.47;55.20
77871;BME280;67067;46.850;7.578;2023-04-15T05:05:46;94345.34;;;5.48;54.98
77871;BME280;67067;46.850;7.578;2023-04-15T05:06:49;94347.75;;;5.49;54.98
77871;BME280;67067;46.850;7.578;2023-04-15T05:07:55;94350.69;;;5.53;54.83
77871;BME280;67067;46.850;7.578;2023-04-15T05:08:56;94345.44;;;5.53;55.07
77871;BME280;67067;46.850;7.578;2023-04-15T05:09:58;94345.50;;;5.41;55.03
77871;BME280;67067;46.850;7.578;2023-04-15T05:11:00;94350.16;;;5.51;54.92
77871;BME280;67067;46.850;7.578;2023-04-15T05:12:03;94345.59;;;5.29;55.61
77871;BME280;67067;46.850;7.578;2023-04-15T05:13:04;94349.50;;;5.43;55.27
77871;BME280;67067;46.850;7.578;2023-04-15T05:14:09;94349.50;;;5.43;55.23
77871;BME280;67067;46.850;7.578;2023-04-15T05:15:13;94344.25;;;5.43;55.60
77871;BME280;67067;46.850;7.578;2023-04-15T05:16:14;94350.84;;;5.29;55.39
77871;BME280;67067;46.850;7.578;2023-04-15T05:17:21;94350.75;;;5.41;55.39
77871;BME280;67067;46.850;7.578;2023-04-15T05:18:22;94356.09;;;5.46;55.80
77871;BME280;67067;46.850;7.578;2023-04-15T05:19:24;94352.78;;;5.51;55.61
77871;BME280;67067;46.850;7.578;2023-04-15T05:20:28;94348.88;;;5.53;55.28
77871;BME280;67067;46.850;7.578;2023-04-15T05:21:30;94358.09;;;5.56;55.31
77871;BME280;67067;46.850;7.578;2023-04-15T05:22:32;94346.81;;;5.55;55.23
77871;BME280;67067;46.850;7.578;2023-04-15T05:23:34;94349.72;;;5.42;55.65
77871;BME280;67067;46.850;7.578;2023-04-15T05:24:35;94346.00;;;5.55;55.39
77871;BME280;67067;46.850;7.578;2023-04-15T05:25:37;94350.31;;;5.44;55.45
77871;BME280;67067;46.850;7.578;2023-04-15T05:26:41;94349.72;;;5.59;55.34
77871;BME280;67067;46.850;7.578;2023-04-15T05:27:45;94349.81;;;5.64;55.56
77871;BME280;67067;46.850;7.578;2023-04-15T05:28:49;94337.50;;;5.65;55.34
77871;BME280;67067;46.850;7.578;2023-04-15T05:29:53;94347.50;;;5.68;55.58
77871;BME280;67067;46.850;7.578;2023-04-15T05:30:55;94340.03;;;5.59;55.45
77871;BME280;67067;46.850;7.578;2023-04-15T05:31:59;94347.25;;;5.69;55.38
77871;BME280;67067;46.850;7.578;2023-04-15T05:33:01;94342.31;;;5.73;55.31
77871;BME280;67067;46.850;7.578;2023-04-15T05:34:07;94349.72;;;5.76;55.58
77871;BME280;67067;46.850;7.578;2023-04-15T05:35:09;94352.00;;;5.72;55.69
77871;BME280;67067;46.850;7.578;2023-04-15T05:36:11;94347.63;;;5.78;55.47
77871;BME280;67067;46.850;7.578;2023-04-15T05:37:13;94350.75;;;5.75;55.67
77871;BME280;67067;46.850;7.578;2023-04-15T05:38:14;94351.72;;;5.52;56.25